Time;durP1;ratioP1;P1;durP2;ratioP2;P2;SDS_P1;SDS_P2;PMS_P1;PMS_P2;Temp;Humidity;BMP_temperature;BMP_pressure;BME280_temperature;BME280_humidity;BME280_pressure;Samples;Min_cycle;Max_cycle;Signal;HPM_P1;HPM_P2
2022/01/30 00:02:11;;;;;;;34.53;4.43;;;;;;;5.00;76.56;102869.22;5069071;28;20392;-77
2022/01/30 00:04:37;;;;;;;33.30;5.35;;;;;;;4.99;77.40;102881.56;5070640;28;20103;-77
2022/01/30 00:07:02;;;;;;;27.50;4.57;;;;;;;4.95;77.73;102886.06;5071147;28;20059;-77
2022/01/30 00:09:28;;;;;;;34.70;4.47;;;;;;;4.94;79.29;102881.72;5070798;28;20234;-76
2022/01/30 00:11:58;;;;;;;25.77;4.95;;;;;;;4.96;79.80;102884.28;5069228;28;20036;-78
2022/01/30 00:14:25;;;;;;;38.40;5.90;;;;;;;4.91;80.75;102878.28;5070748;28;20024;-78
2022/01/30 00:17:03;;;;;;;47.65;5.43;;;;;;;4.81;81.33;102874.25;5070534;28;20035;-78
2022/01/30 00:19:38;;;;;;;38.78;5.32;;;;;;;4.76;82.13;102877.03;5070957;28;20032;-78
2022/01/30 00:24:48;;;;;;;31.48;5.00;;;;;;;4.75;83.07;102892.00;5070722;28;20044;-76
2022/01/30 00:27:20;;;;;;;33.95;5.28;;;;;;;4.79;83.03;102887.47;5070777;28;20036;-76
2022/01/30 00:29:47;;;;;;;35.80;5.45;;;;;;;4.80;82.71;102891.84;5070472;28;20040;-76
2022/01/30 00:32:12;;;;;;;36.92;4.07;;;;;;;4.82;82.38;102891.81;5070573;28;20037;-78
2022/01/30 00:34:38;;;;;;;29.92;4.55;;;;;;;4.84;82.15;102893.50;5070648;28;20036;-76
2022/01/30 00:37:03;;;;;;;40.40;5.18;;;;;;;4.85;81.87;102902.25;5070471;28;20055;-76
2022/01/30 00:39:29;;;;;;;30.63;4.30;;;;;;;4.80;81.85;102901.56;5070836;28;20441;-76
2022/01/30 00:41:55;;;;;;;33.28;4.30;;;;;;;4.75;82.26;102907.00;5070338;28;20433;-76
2022/01/30 00:44:21;;;;;;;32.13;5.43;;;;;;;4.72;82.20;102907.09;5070408;28;20185;-76
2022/01/30 00:46:47;;;;;;;29.05;4.10;;;;;;;4.73;81.99;102914.94;5070195;28;20028;-76
2022/01/30 00:49:13;;;;;;;37.30;4.82;;;;;;;4.72;82.45;102907.09;5070432;28;20069;-76
2022/01/30 00:51:38;;;;;;;41.55;5.05;;;;;;;4.72;82.61;102915.00;5070319;28;20021;-78
2022/01/30 00:54:05;;;;;;;30.30;5.40;;;;;;;4.63;82.73;102905.63;5070290;28;20029;-75
2022/01/30 00:56:31;;;;;;;31.48;4.57;;;;;;;4.65;82.63;102908.19;5072791;28;20056;-77
2022/01/30 00:58:56;;;;;;;35.13;4.60;;;;;;;4.61;82.98;102903.94;5073034;28;20386;-78
2022/01/30 01:01:21;;;;;;;28.70;4.93;;;;;;;4.62;82.75;102909.16;5073694;28;20120;-79
2022/01/30 01:03:47;;;;;;;30.27;4.50;;;;;;;4.68;82.44;102906.31;5074635;28;20456;-78
2022/01/30 01:06:12;;;;;;;40.25;5.68;;;;;;;4.67;82.56;102903.72;5074047;28;20040;-77
2022/01/30 01:08:56;;;;;;;38.22;4.80;;;;;;;4.64;82.63;102911.75;5072239;28;20076;-78
2022/01/30 01:24:46;;;;;;;30.50;4.70;;;;;;;4.66;79.28;102915.19;5073699;28;20080;-77
2022/01/30 01:27:12;;;;;;;31.30;4.57;;;;;;;4.71;78.65;102918.53;5073359;28;20123;-77
2022/01/30 01:29:38;;;;;;;27.17;4.00;;;;;;;4.67;79.08;102922.19;5073187;28;20032;-76
2022/01/30 01:32:04;;;;;;;25.48;4.63;;;;;;;4.59;79.49;102920.66;5073675;28;20360;-76
2022/01/30 01:34:35;;;;;;;28.52;4.55;;;;;;;4.55;79.67;102924.31;5073171;28;20177;-77
2022/01/30 01:37:01;;;;;;;29.92;3.97;;;;;;;4.53;79.53;102923.50;5073868;28;20074;-76
2022/01/30 01:39:27;;;;;;;29.08;3.78;;;;;;;4.53;79.12;102912.09;5071931;28;20040;-80
2022/01/30 01:41:53;;;;;;;26.50;4.43;;;;;;;4.63;77.45;102916.16;5073615;28;20083;-75
2022/01/30 01:44:30;;;;;;;23.95;3.80;;;;;;;4.67;76.86;102927.47;5073799;28;20370;-76
2022/01/30 01:46:55;;;;;;;26.98;3.80;;;;;;;4.66;76.45;102920.44;5072213;28;20161;-76
2022/01/30 01:49:27;;;;;;;32.60;4.65;;;;;;;4.71;76.66;102926.44;5073631;28;20132;-77
2022/01/30 01:52:14;;;;;;;29.52;4.38;;;;;;;4.70;76.85;102924.72;5073922;28;20047;-78
2022/01/30 01:54:39;;;;;;;26.25;4.22;;;;;;;4.72;77.01;102930.81;5073192;28;20064;-77
2022/01/30 01:57:04;;;;;;;32.03;4.32;;;;;;;4.69;77.74;102928.28;5073722;28;20346;-79
2022/01/30 01:59:30;;;;;;;28.83;4.43;;;;;;;4.63;77.82;102939.00;5073436;28;20353;-78
2022/01/30 02:01:58;;;;;;;28.08;4.43;;;;;;;4.58;78.61;102934.78;5073175;28;20200;-76
2022/01/30 02:04:24;;;;;;;26.38;4.57;;;;;;;4.54;78.95;102941.03;5073072;28;20063;-77
2022/01/30 02:07:00;;;;;;;34.33;4.28;;;;;;;4.49;79.18;102939.47;5072056;28;20437;-76
2022/01/30 02:09:30;;;;;;;31.73;4.50;;;;;;;4.47;79.62;102947.41;5073151;28;20111;-78
2022/01/30 02:11:55;;;;;;;26.92;4.78;;;;;;;4.45;79.66;102941.34;5072930;28;20048;-75
2022/01/30 02:14:32;;;;;;;41.03;3.80;;;;;;;4.50;79.15;102942.03;5072647;28;20364;-76
2022/01/30 02:25:42;;;;;;;39.25;4.55;;;;;;;4.28;80.18;102941.84;5070545;28;20071;-80
2022/01/30 02:28:14;;;;;;;26.75;3.80;;;;;;;4.28;79.76;102944.47;5076106;28;20469;-80
2022/01/30 02:30:46;;;;;;;24.48;4.45;;;;;;;4.33;79.41;102946.97;5075299;28;20033;-79
2022/01/30 02:33:11;;;;;;;;;;;;;;;4.34;79.05;102938.16;5076321;28;20021;-79
2022/01/30 02:35:36;;;;;;;28.60;4.03;;;;;;;4.34;79.10;102946.91;5075245;28;19909;-78
2022/01/30 02:38:02;;;;;;;30.60;3.58;;;;;;;4.34;79.75;102951.34;5073900;28;20123;-80
2022/01/30 02:40:35;;;;;;;34.95;3.65;;;;;;;4.34;80.08;102949.56;5075279;28;20032;-80
2022/01/30 02:43:02;;;;;;;20.08;3.33;;;;;;;4.31;80.35;102943.53;5075718;28;20028;-80
2022/01/30 02:45:31;;;;;;;28.75;4.38;;;;;;;4.27;81.05;102947.16;5074112;28;20064;-80
2022/01/30 02:48:11;;;;;;;20.90;3.60;;;;;;;4.20;81.76;102943.84;5075320;28;20127;-81
2022/01/30 02:50:49;;;;;;;21.58;3.05;;;;;;;4.13;81.25;102955.47;5075106;28;20028;-79
2022/01/30 02:53:15;;;;;;;25.52;3.60;;;;;;;4.10;80.22;102945.88;5075435;28;20036;-80
2022/01/30 02:55:40;;;;;;;32.15;4.82;;;;;;;4.26;79.30;102948.09;5074843;28;20207;-81
2022/01/30 02:58:05;;;;;;;32.55;4.30;;;;;;;4.44;78.88;102944.88;5075046;28;20029;-82
2022/01/30 03:00:31;;;;;;;27.38;4.30;;;;;;;4.55;78.90;102949.81;5075342;28;20074;-80
2022/01/30 03:02:57;;;;;;;25.52;3.92;;;;;;;4.57;78.95;102940.94;5074892;28;20028;-79
2022/01/30 03:05:22;;;;;;;28.10;4.68;;;;;;;4.52;79.05;102942.88;5074986;28;20036;-79
2022/01/30 03:07:48;;;;;;;33.92;5.00;;;;;;;4.46;79.51;102940.41;5075771;28;20453;-79
2022/01/30 03:10:14;;;;;;;29.98;4.32;;;;;;;4.45;79.31;102946.59;5074409;28;20107;-80
2022/01/30 03:12:40;;;;;;;26.90;4.15;;;;;;;4.43;79.67;102942.28;5074455;28;20032;-77
2022/01/30 03:15:06;;;;;;;31.98;4.75;;;;;;;4.48;79.10;102943.88;5074624;28;20032;-82
2022/01/30 03:17:32;;;;;;;24.25;3.88;;;;;;;4.51;76.78;102945.53;5073174;28;20102;-83
2022/01/30 03:19:57;;;;;;;21.08;3.08;;;;;;;4.47;75.59;102941.28;5074207;28;20449;-84
2022/01/30 03:22:24;;;;;;;20.98;3.50;;;;;;;4.40;75.48;102959.94;5074291;28;20036;-80
2022/01/30 03:24:49;;;;;;;21.08;3.13;;;;;;;4.35;75.84;102958.34;5074343;28;20033;-79
2022/01/30 03:27:15;;;;;;;24.58;3.00;;;;;;;4.29;75.84;102956.75;5074632;28;20040;-80
2022/01/30 03:29:41;;;;;;;19.08;3.67;;;;;;;4.27;76.60;102978.78;5073994;28;20472;-77
2022/01/30 03:32:07;;;;;;;20.95;2.60;;;;;;;4.35;76.58;102982.06;5074543;28;20468;-82
2022/01/30 03:34:33;;;;;;;21.30;2.58;;;;;;;4.46;75.67;102979.94;5074427;28;20100;-79
2022/01/30 03:36:58;;;;;;;21.75;3.05;;;;;;;4.52;74.87;102971.00;5074070;28;20396;-78
2022/01/30 03:39:24;;;;;;;26.55;3.80;;;;;;;4.57;74.34;102977.84;5074624;28;20031;-81
2022/01/30 03:41:50;;;;;;;11.57;2.10;;;;;;;4.54;74.62;102971.84;5074019;28;20044;-80
2022/01/30 03:44:15;;;;;;;20.73;3.28;;;;;;;4.49;74.66;102966.66;5074114;28;20086;-78
2022/01/30 03:46:41;;;;;;;22.38;3.00;;;;;;;4.47;75.24;102980.84;5073709;28;20033;-78
2022/01/30 03:49:06;;;;;;;17.88;3.25;;;;;;;4.43;74.80;102977.41;5073867;28;20431;-80
2022/01/30 03:51:31;;;;;;;26.05;3.53;;;;;;;4.35;75.48;102967.09;5073460;28;20040;-80
2022/01/30 03:53:57;;;;;;;23.30;3.53;;;;;;;4.31;76.27;102976.00;5074146;28;20116;-80
2022/01/30 03:56:22;;;;;;;15.38;3.00;;;;;;;4.36;76.09;102976.75;5072619;28;20523;-80
2022/01/30 03:58:47;;;;;;;15.88;2.35;;;;;;;4.51;74.87;102995.63;5072172;28;20035;-79
2022/01/30 04:01:13;;;;;;;22.90;2.92;;;;;;;4.60;75.49;102987.44;5074166;28;20441;-80
2022/01/30 04:03:38;;;;;;;19.80;2.70;;;;;;;4.66;75.45;102982.00;5073870;28;20025;-81
2022/01/30 04:06:05;;;;;;;17.98;3.15;;;;;;;4.70;74.77;102985.38;5073684;28;20392;-80
2022/01/30 04:08:32;;;;;;;27.10;2.45;;;;;;;4.69;75.31;102976.63;5074210;28;20044;-80
2022/01/30 04:10:57;;;;;;;27.45;3.17;;;;;;;4.67;75.79;102980.19;5073331;28;20083;-80
2022/01/30 04:13:23;;;;;;;20.05;2.83;;;;;;;4.63;75.98;102984.72;5072846;28;20457;-80
2022/01/30 04:15:48;;;;;;;20.80;3.20;;;;;;;4.57;76.12;102985.78;5073600;28;20040;-78
2022/01/30 04:18:14;;;;;;;17.88;2.65;;;;;;;4.53;76.04;102980.63;5072766;28;20487;-80
2022/01/30 04:20:40;;;;;;;18.20;3.05;;;;;;;4.48;76.23;102979.91;5073922;28;20393;-81
2022/01/30 04:23:05;;;;;;;27.48;3.03;;;;;;;4.43;76.59;102987.09;5072542;28;20123;-81
2022/01/30 04:25:30;;;;;;;19.30;2.90;;;;;;;4.31;77.36;102994.44;5073805;28;20056;-81
2022/01/30 04:27:56;;;;;;;21.65;4.43;;;;;;;4.18;78.16;102996.59;5073726;28;20518;-81
2022/01/30 04:30:23;;;;;;;21.25;3.10;;;;;;;4.14;77.73;102991.47;5073670;28;20036;-81
2022/01/30 04:32:48;;;;;;;21.48;4.03;;;;;;;4.16;76.98;102994.91;5073553;28;20032;-80
2022/01/30 04:35:21;;;;;;;29.27;4.13;;;;;;;4.09;77.41;102998.63;5072938;28;20369;-81
2022/01/30 05:04:18;;;;;;;31.52;3.75;;;;;;;3.85;76.48;103016.84;5071885;28;20060;-80
2022/01/30 05:09:18;;;;;;;30.30;4.53;;;;;;;3.86;75.54;103031.75;5073516;28;20044;-79
2022/01/30 05:11:44;;;;;;;26.67;4.05;;;;;;;3.84;75.83;103026.53;5073147;28;20036;-79
2022/01/30 05:14:10;;;;;;;22.08;3.33;;;;;;;3.87;75.84;103036.13;5072961;28;20059;-79
2022/01/30 05:16:35;;;;;;;25.65;3.88;;;;;;;3.83;75.89;103035.31;5072610;28;20029;-79
2022/01/30 05:19:01;;;;;;;27.80;3.22;;;;;;;3.79;76.46;103036.34;5071716;28;20040;-79
2022/01/30 05:21:27;;;;;;;21.52;3.50;;;;;;;3.76;76.52;103033.75;5072876;28;20508;-79
2022/01/30 05:23:53;;;;;;;23.65;3.13;;;;;;;3.77;76.01;103039.91;5071697;28;20471;-80
2022/01/30 05:26:21;;;;;;;18.90;3.38;;;;;;;3.74;76.14;103045.25;5072705;28;20059;-80
2022/01/30 05:28:46;;;;;;;20.63;3.30;;;;;;;3.78;76.25;103044.28;5073051;28;20029;-80
2022/01/30 05:31:12;;;;;;;31.52;3.75;;;;;;;3.80;75.72;103051.22;5072896;28;20090;-79
2022/01/30 05:33:37;;;;;;;21.58;3.10;;;;;;;3.81;75.61;103054.72;5073484;28;20040;-80
2022/01/30 05:36:03;;;;;;;27.25;4.38;;;;;;;3.81;74.65;103052.94;5073421;28;20040;-80
2022/01/30 05:38:30;;;;;;;17.80;3.30;;;;;;;3.80;73.38;103066.16;5072255;28;20062;-80
2022/01/30 05:40:56;;;;;;;24.95;3.08;;;;;;;3.81;72.81;103063.47;5071638;28;20032;-80
2022/01/30 05:43:23;;;;;;;21.02;3.35;;;;;;;3.88;72.48;103065.06;5076371;28;20467;-80
2022/01/30 05:45:54;;;;;;;22.70;3.38;;;;;;;3.97;71.63;103069.22;5076394;28;20033;-80
2022/01/30 05:48:20;;;;;;;26.70;3.70;;;;;;;4.02;71.59;103077.00;5076165;28;20481;-80
2022/01/30 05:50:46;;;;;;;17.77;3.20;;;;;;;4.05;72.09;103084.81;5076028;28;20028;-80
2022/01/30 05:53:13;;;;;;;26.38;3.90;;;;;;;4.09;72.50;103083.81;5076529;28;20040;-79
2022/01/30 05:55:39;;;;;;;24.42;3.42;;;;;;;4.20;73.46;103096.69;5076106;28;20029;-80
2022/01/30 05:58:04;;;;;;;27.92;3.58;;;;;;;4.27;73.95;103098.25;5076492;28;20475;-79
2022/01/30 06:00:30;;;;;;;30.92;3.70;;;;;;;4.24;74.05;103107.09;5075756;28;20040;-80
2022/01/30 06:02:55;;;;;;;23.83;3.72;;;;;;;4.15;74.69;103103.84;5075671;28;20068;-80
2022/01/30 06:05:23;;;;;;;32.22;3.65;;;;;;;4.08;74.72;103120.75;5075828;28;20028;-80
2022/01/30 06:07:55;;;;;;;24.88;3.65;;;;;;;4.06;74.19;103120.75;5076920;28;20064;-80
2022/01/30 06:10:23;;;;;;;26.38;4.00;;;;;;;4.00;73.27;103119.19;5075713;28;20488;-79
2022/01/30 06:12:48;;;;;;;19.45;3.35;;;;;;;3.92;73.28;103112.38;5075666;28;20029;-80
2022/01/30 06:15:15;;;;;;;26.90;3.58;;;;;;;3.80;73.25;103108.28;5076204;28;20031;-79
2022/01/30 06:17:43;;;;;;;28.33;3.58;;;;;;;3.71;73.72;103104.97;5076176;28;20044;-79
2022/01/30 06:20:10;;;;;;;27.70;3.80;;;;;;;3.64;73.55;103111.31;5075821;28;20072;-79
2022/01/30 06:22:36;;;;;;;28.05;4.32;;;;;;;3.65;73.88;103113.03;5075539;28;20465;-79
2022/01/30 06:25:03;;;;;;;28.70;4.60;;;;;;;3.66;73.78;103124.44;5075570;28;20029;-79
2022/01/30 06:27:28;;;;;;;20.85;3.70;;;;;;;3.61;74.41;103123.69;5075338;28;20082;-79
2022/01/30 06:29:54;;;;;;;27.98;4.07;;;;;;;3.58;74.16;103129.03;5075915;28;20449;-79
2022/01/30 06:32:19;;;;;;;30.88;4.90;;;;;;;3.54;74.28;103128.25;5075270;28;20039;-79
2022/01/30 06:34:45;;;;;;;28.23;4.13;;;;;;;3.48;74.60;103134.53;5075461;28;20032;-79
2022/01/30 06:37:10;;;;;;;25.85;3.90;;;;;;;3.43;74.75;103132.91;5073982;28;20039;-78
2022/01/30 06:39:35;;;;;;;35.60;4.47;;;;;;;3.47;74.30;103131.94;5075391;28;20121;-79
2022/01/30 06:42:01;;;;;;;29.42;3.70;;;;;;;3.53;73.78;103129.16;5075244;28;20173;-80
2022/01/30 06:44:26;;;;;;;29.00;4.40;;;;;;;3.61;73.52;103129.81;5075150;28;20114;-79
2022/01/30 06:46:52;;;;;;;30.77;4.18;;;;;;;3.65;73.29;103143.78;5074942;28;20040;-79
2022/01/30 06:49:17;;;;;;;19.73;3.78;;;;;;;3.71;72.51;103131.31;5074611;28;20029;-79
2022/01/30 06:51:43;;;;;;;30.73;6.05;;;;;;;3.70;72.34;103140.13;5073921;28;20497;-79
2022/01/30 06:54:08;;;;;;;34.83;3.63;;;;;;;3.74;71.31;103135.63;5072844;28;20107;-79
2022/01/30 06:56:33;;;;;;;34.65;4.93;;;;;;;3.68;71.74;103126.13;5074502;28;20107;-79
2022/01/30 06:58:59;;;;;;;28.85;4.15;;;;;;;3.66;71.57;103119.19;5074117;28;20123;-79
2022/01/30 07:01:25;;;;;;;26.58;3.97;;;;;;;3.64;71.56;103119.22;5074755;28;20352;-79
2022/01/30 07:03:52;;;;;;;25.33;4.00;;;;;;;3.61;71.90;103123.69;5075048;28;20054;-79
2022/01/30 07:06:18;;;;;;;30.85;4.15;;;;;;;3.57;72.76;103125.53;5076450;28;20060;-79
2022/01/30 07:08:43;;;;;;;46.40;4.50;;;;;;;3.53;73.58;103137.03;5076266;28;20048;-79
2022/01/30 07:11:09;;;;;;;21.73;3.70;;;;;;;3.49;74.60;103140.63;5075208;28;20171;-80
2022/01/30 07:13:34;;;;;;;37.25;4.47;;;;;;;3.41;75.81;103154.00;5075515;28;20032;-80
2022/01/30 07:16:00;;;;;;;20.15;3.00;;;;;;;3.34;76.13;103153.28;5073903;28;20389;-80
2022/01/30 07:18:25;;;;;;;21.92;3.50;;;;;;;3.32;76.48;103165.59;5074095;28;20051;-80
2022/01/30 07:20:50;;;;;;;20.33;3.80;;;;;;;3.25;77.30;103165.75;5074634;28;20032;-80
2022/01/30 07:23:16;;;;;;;27.83;4.25;;;;;;;3.20;77.68;103167.66;5073837;28;20054;-79
2022/01/30 07:25:43;;;;;;;26.08;4.20;;;;;;;3.16;78.58;103186.13;5073666;28;20457;-79
2022/01/30 07:28:08;;;;;;;37.75;4.85;;;;;;;3.18;79.13;103188.72;5073822;28;20039;-81
2022/01/30 07:30:34;;;;;;;37.85;4.38;;;;;;;3.23;79.39;103192.13;5073438;28;20020;-78
2022/01/30 07:33:00;;;;;;;34.40;5.30;;;;;;;3.32;78.99;103191.91;5072028;28;20120;-81
2022/01/30 07:35:26;;;;;;;22.98;4.57;;;;;;;3.40;79.06;103188.25;5073153;28;20068;-78
2022/01/30 07:37:51;;;;;;;28.95;3.90;;;;;;;3.52;78.51;103185.31;5074364;28;20460;-80
2022/01/30 07:40:17;;;;;;;33.05;5.30;;;;;;;3.63;77.73;103182.47;5072971;28;20406;-77
2022/01/30 07:42:43;;;;;;;35.97;5.00;;;;;;;3.77;77.26;103182.13;5073756;28;20034;-77
2022/01/30 07:45:09;;;;;;;34.22;4.70;;;;;;;3.89;76.51;103177.38;5073337;28;20111;-80
2022/01/30 07:47:34;;;;;;;34.20;5.15;;;;;;;3.98;75.84;103180.72;5073269;28;20058;-78
2022/01/30 07:50:00;;;;;;;43.72;6.53;;;;;;;4.02;75.68;103174.47;5072790;28;20036;-78
2022/01/30 07:52:25;;;;;;;33.22;5.00;;;;;;;4.05;75.49;103182.28;5071845;28;20127;-78
2022/01/30 07:54:51;;;;;;;31.75;4.13;;;;;;;4.14;74.35;103174.13;5072760;28;20028;-78
2022/01/30 07:57:20;;;;;;;36.97;4.32;;;;;;;4.21;73.89;103167.81;5071889;28;20075;-77
2022/01/30 07:59:46;;;;;;;40.55;5.22;;;;;;;4.22;74.27;103173.94;5072807;28;20037;-80
2022/01/30 08:02:11;;;;;;;37.15;5.57;;;;;;;4.17;74.33;103179.31;5072770;28;20127;-78
2022/01/30 08:04:37;;;;;;;34.03;5.13;;;;;;;4.12;74.94;103173.31;5072376;28;20526;-78
2022/01/30 08:07:03;;;;;;;28.73;5.68;;;;;;;4.10;75.45;103166.34;5071507;28;20052;-78
2022/01/30 08:09:28;;;;;;;26.45;4.38;;;;;;;4.16;75.42;103189.91;5072643;28;20115;-78
2022/01/30 08:11:55;;;;;;;36.95;5.10;;;;;;;4.26;75.50;103178.22;5071794;28;20135;-81
2022/01/30 08:14:21;;;;;;;32.67;5.00;;;;;;;4.36;75.09;103192.00;5072643;28;20479;-78
2022/01/30 08:16:46;;;;;;;36.28;4.38;;;;;;;4.41;75.10;103192.75;5072559;28;20036;-78
2022/01/30 08:19:11;;;;;;;34.85;4.57;;;;;;;4.44;75.64;103192.69;5071987;28;20055;-77
2022/01/30 08:21:37;;;;;;;35.45;5.15;;;;;;;4.50;75.66;103189.88;5070648;28;20111;-77
2022/01/30 08:24:02;;;;;;;26.83;4.35;;;;;;;4.54;75.46;103194.16;5070805;28;20116;-76
2022/01/30 08:26:28;;;;;;;30.45;4.47;;;;;;;4.62;75.48;103199.22;5072728;28;20025;-78
2022/01/30 08:28:53;;;;;;;40.53;6.40;;;;;;;4.66;75.26;103195.59;5072952;28;20039;-83
2022/01/30 08:31:18;;;;;;;33.30;5.50;;;;;;;4.68;75.41;103200.81;5072692;28;20064;-79
2022/01/30 08:33:44;;;;;;;32.05;4.15;;;;;;;4.70;74.41;103199.88;5075625;28;20054;-80
2022/01/30 08:36:09;;;;;;;27.23;4.28;;;;;;;4.75;74.33;103197.13;5074489;28;20380;-79
2022/01/30 08:38:34;;;;;;;38.22;5.03;;;;;;;4.76;74.13;103202.34;5072561;28;20025;-81
2022/01/30 08:41:00;;;;;;;45.47;5.65;;;;;;;4.81;74.35;103201.31;5072115;28;20060;-82
2022/01/30 08:43:25;;;;;;;32.38;4.38;;;;;;;4.84;74.78;103201.25;5071215;28;20043;-80
2022/01/30 08:45:52;;;;;;;39.75;5.10;;;;;;;4.90;74.44;103207.22;5072237;28;20060;-82
2022/01/30 08:48:18;;;;;;;29.58;4.38;;;;;;;4.98;74.17;103214.06;5072511;28;20453;-81
2022/01/30 08:50:45;;;;;;;27.67;4.15;;;;;;;5.03;74.28;103204.22;5072958;28;20029;-80
2022/01/30 08:53:10;;;;;;;34.65;5.90;;;;;;;5.07;73.77;103201.44;5071930;28;20044;-78
2022/01/30 08:55:36;;;;;;;37.25;4.43;;;;;;;5.16;73.54;103204.72;5072348;28;20035;-82
2022/01/30 08:58:08;;;;;;;32.03;4.30;;;;;;;5.24;73.32;103205.34;5071444;28;20047;-82
2022/01/30 09:00:38;;;;;;;38.45;4.50;;;;;;;5.38;72.71;103215.50;5072256;28;20117;-80
2022/01/30 09:03:05;;;;;;;35.95;5.57;;;;;;;5.53;71.31;103214.16;5072323;28;20139;-79
2022/01/30 09:05:32;;;;;;;36.65;5.53;;;;;;;5.59;70.71;103206.03;5072373;28;20090;-81
2022/01/30 09:07:58;;;;;;;35.10;4.53;;;;;;;5.48;70.03;103201.09;5072299;28;20075;-81
2022/01/30 09:10:23;;;;;;;27.77;5.22;;;;;;;5.40;70.07;103218.94;5070851;28;20036;-82
2022/01/30 09:12:49;;;;;;;29.42;4.57;;;;;;;5.28;69.75;103217.53;5072548;28;20104;-79
2022/01/30 09:15:16;;;;;;;26.25;4.55;;;;;;;5.32;69.79;103226.25;5073071;28;20090;-79
2022/01/30 09:17:43;;;;;;;34.42;5.65;;;;;;;5.42;70.04;103230.31;5075462;28;20039;-81
2022/01/30 09:20:09;;;;;;;31.05;4.82;;;;;;;5.56;69.75;103233.41;5075744;28;20396;-79
2022/01/30 09:22:35;;;;;;;23.63;3.58;;;;;;;5.73;69.78;103235.53;5075548;28;20119;-80
2022/01/30 09:25:00;;;;;;;32.38;4.53;;;;;;;5.89;69.23;103227.97;5074203;28;20431;-80
2022/01/30 09:27:25;;;;;;;30.55;4.57;;;;;;;5.92;69.32;103232.28;5076067;28;20036;-83
2022/01/30 09:29:51;;;;;;;39.22;4.70;;;;;;;5.84;69.42;103248.41;5074761;28;20424;-79
2022/01/30 09:32:17;;;;;;;33.08;5.95;;;;;;;5.73;70.00;103250.50;5075531;28;20036;-79
2022/01/30 09:34:43;;;;;;;41.78;5.65;;;;;;;5.76;70.57;103258.31;5074925;28;20044;-80
2022/01/30 09:37:09;;;;;;;31.98;5.72;;;;;;;5.97;70.61;103243.59;5075983;28;20025;-81
2022/01/30 09:39:36;;;;;;;35.58;5.68;;;;;;;6.23;69.47;103258.59;5075518;28;20440;-81
2022/01/30 09:42:02;;;;;;;36.72;5.32;;;;;;;6.33;69.33;103251.22;5074982;28;20035;-86
2022/01/30 09:44:29;;;;;;;33.00;4.80;;;;;;;6.33;68.87;103253.88;5076669;28;20427;-85
2022/01/30 09:46:54;;;;;;;26.52;4.18;;;;;;;6.55;68.31;103253.13;5075432;28;20473;-81
2022/01/30 09:49:23;;;;;;;39.35;5.10;;;;;;;6.88;67.83;103243.09;5075666;28;20043;-79
2022/01/30 09:51:50;;;;;;;31.75;4.60;;;;;;;7.00;67.12;103241.78;5075108;28;20029;-79
2022/01/30 09:54:16;;;;;;;37.40;5.70;;;;;;;6.73;67.99;103248.97;5075293;28;20040;-75
2022/01/30 09:56:41;;;;;;;26.92;4.63;;;;;;;6.59;68.51;103252.09;5075091;28;20162;-81
2022/01/30 09:59:07;;;;;;;23.40;4.20;;;;;;;6.55;68.48;103239.91;5074851;28;20037;-77
2022/01/30 10:01:35;;;;;;;31.67;5.50;;;;;;;6.57;68.84;103257.44;5074976;28;20041;-79
2022/01/30 10:04:03;;;;;;;26.58;4.53;;;;;;;6.61;68.41;103242.31;5075013;28;20115;-79
2022/01/30 10:06:37;;;;;;;39.78;4.93;;;;;;;6.75;67.78;103245.34;5073015;28;20028;-78
2022/01/30 10:09:20;;;;;;;28.67;4.93;;;;;;;6.89;67.30;103250.13;5074939;28;20029;-79
2022/01/30 10:11:50;;;;;;;31.02;4.88;;;;;;;7.00;66.14;103255.91;5074779;28;20111;-85
2022/01/30 10:14:16;;;;;;;30.90;4.50;;;;;;;7.20;65.65;103254.28;5075033;28;20028;-79
2022/01/30 10:16:45;;;;;;;39.95;5.32;;;;;;;7.47;64.93;103260.31;5074980;28;20099;-82
2022/01/30 10:19:20;;;;;;;24.17;3.95;;;;;;;7.68;64.68;103261.25;5075209;28;20036;-79
2022/01/30 10:21:47;;;;;;;23.45;4.50;;;;;;;7.86;63.09;103264.09;5074823;28;20509;-79
2022/01/30 10:24:19;;;;;;;40.65;5.32;;;;;;;7.82;63.61;103262.50;5074674;28;20117;-81
2022/01/30 10:26:44;;;;;;;;;;;;;;;7.98;63.40;103252.13;5075127;28;20051;-81
2022/01/30 10:29:31;;;;;;;32.78;4.13;;;;;;;7.97;63.08;103264.50;5074584;28;19912;-82
2022/01/30 10:32:08;;;;;;;28.33;5.63;;;;;;;7.64;62.33;103261.44;5074944;28;20035;-82
2022/01/30 10:34:35;;;;;;;34.95;6.40;;;;;;;7.31;64.12;103269.78;5073774;28;20035;-81
2022/01/30 10:37:25;;;;;;;31.50;4.65;;;;;;;7.53;64.12;103265.38;5072995;28;20120;-83
2022/01/30 10:39:58;;;;;;;33.13;6.20;;;;;;;8.16;62.92;103272.56;5074505;28;20040;-80
2022/01/30 10:42:38;;;;;;;33.03;4.95;;;;;;;9.11;60.19;103270.25;5075128;28;20056;-80
2022/01/30 10:45:12;;;;;;;33.55;4.88;;;;;;;9.91;56.36;103264.75;5074437;28;20113;-79
2022/01/30 10:47:38;;;;;;;33.78;5.20;;;;;;;9.84;54.70;103269.53;5074473;28;20092;-79
2022/01/30 10:50:09;;;;;;;35.28;4.90;;;;;;;9.20;55.29;103276.09;5074316;28;20060;-81
2022/01/30 10:52:46;;;;;;;38.25;5.07;;;;;;;8.39;57.37;103276.94;5074537;28;20123;-81
2022/01/30 10:55:12;;;;;;;32.10;5.45;;;;;;;7.95;58.70;103279.63;5073276;28;20477;-83
2022/01/30 10:57:44;;;;;;;27.75;5.10;;;;;;;7.51;60.44;103272.53;5074281;28;20060;-82
2022/01/30 11:00:09;;;;;;;29.63;4.45;;;;;;;7.62;60.95;103280.03;5074221;28;20469;-84
2022/01/30 11:02:41;;;;;;;32.53;6.43;;;;;;;7.98;60.07;103276.84;5073004;28;20039;-82
2022/01/30 11:05:11;;;;;;;42.38;6.10;;;;;;;8.84;58.70;103272.38;5073927;28;20120;-79
2022/01/30 11:07:37;;;;;;;30.48;5.35;;;;;;;9.45;55.99;103275.78;5072390;28;20068;-83
2022/01/30 11:10:21;;;;;;;26.90;4.85;;;;;;;9.33;54.85;103283.41;5073774;28;20037;-79
2022/01/30 11:12:56;;;;;;;28.55;4.85;;;;;;;9.21;53.44;103281.34;5073750;28;20147;-82
2022/01/30 11:17:54;;;;;;;35.58;5.03;;;;;;;9.76;54.19;103275.19;5074085;28;20041;-80
2022/01/30 11:20:21;;;;;;;23.75;4.30;;;;;;;9.98;53.46;103284.78;5073477;28;20143;-78
2022/01/30 11:22:47;;;;;;;22.40;4.20;;;;;;;9.93;50.80;103279.69;5073752;28;20036;-74
2022/01/30 11:25:14;;;;;;;24.60;4.22;;;;;;;9.87;52.85;103282.66;5074204;28;20089;-73
2022/01/30 11:27:46;;;;;;;30.42;5.32;;;;;;;9.66;52.94;103281.91;5073319;28;20028;-77
2022/01/30 11:30:12;;;;;;;28.17;5.03;;;;;;;9.31;54.14;103277.28;5073335;28;20028;-80
2022/01/30 11:32:39;;;;;;;28.65;4.75;;;;;;;8.94;54.76;103279.00;5073843;28;20063;-84
2022/01/30 11:35:05;;;;;;;34.80;5.53;;;;;;;8.53;56.32;103278.16;5073350;28;20038;-83
2022/01/30 11:37:32;;;;;;;30.73;4.53;;;;;;;8.30;57.50;103272.88;5071909;28;20476;-79
2022/01/30 11:40:00;;;;;;;34.28;5.20;;;;;;;7.89;57.51;103277.22;5072159;28;20024;-78
2022/01/30 11:42:25;;;;;;;32.72;4.43;;;;;;;7.79;57.79;103273.22;5072184;28;20071;-79
2022/01/30 11:45:00;;;;;;;34.55;4.75;;;;;;;7.56;59.69;103270.53;5072669;28;20460;-79
2022/01/30 11:47:25;;;;;;;42.50;5.47;;;;;;;7.73;59.86;103264.59;5072970;28;20036;-80
2022/01/30 11:50:01;;;;;;;26.80;4.28;;;;;;;8.16;57.64;103255.81;5073487;28;20380;-78
2022/01/30 11:52:47;;;;;;;25.77;4.60;;;;;;;8.28;58.03;103258.81;5073248;28;20050;-80
2022/01/30 11:55:42;;;;;;;34.13;5.28;;;;;;;8.30;57.85;103258.75;5071444;28;20028;-79
2022/01/30 11:58:33;;;;;;;34.50;4.82;;;;;;;8.27;58.62;103246.47;5072801;28;20033;-76
2022/01/30 12:01:26;;;;;;;32.85;4.70;;;;;;;8.28;59.23;103247.31;5072887;28;20032;-78
2022/01/30 12:03:53;;;;;;;31.77;4.28;;;;;;;8.15;58.69;103240.81;5071664;28;20058;-78
2022/01/30 12:06:18;;;;;;;24.20;4.43;;;;;;;8.21;57.44;103235.25;5072555;28;20051;-78
2022/01/30 12:08:46;;;;;;;31.08;4.72;;;;;;;8.22;57.64;103232.53;5073311;28;20133;-81
2022/01/30 12:11:36;;;;;;;32.92;5.22;;;;;;;8.04;57.67;103235.97;5071880;28;20457;-78
2022/01/30 12:14:10;;;;;;;28.38;5.18;;;;;;;7.97;56.90;103234.50;5072443;28;20021;-77
2022/01/30 12:16:45;;;;;;;31.73;4.55;;;;;;;7.93;57.51;103228.47;5072786;28;20029;-77
2022/01/30 12:19:13;;;;;;;27.20;4.40;;;;;;;8.14;57.26;103220.53;5073171;28;20034;-80
2022/01/30 12:21:39;;;;;;;25.55;4.88;;;;;;;8.64;55.25;103217.50;5072737;28;20040;-79
2022/01/30 12:24:25;;;;;;;30.08;4.32;;;;;;;9.50;53.65;103212.66;5072211;28;20467;-78
2022/01/30 12:26:58;;;;;;;24.67;4.18;;;;;;;10.20;49.47;103208.28;5072491;28;20473;-79